Time;durP1;ratioP1;P1;durP2;ratioP2;P2;SDS_P1;SDS_P2;PMS_P1;PMS_P2;Temp;Humidity;BMP_temperature;BMP_pressure;BME280_temperature;BME280_humidity;BME280_pressure;Samples;Min_cycle;Max_cycle;Signal;HPM_P1;HPM_P2
2022/01/11 00:01:17;;;;;;;;;;;4.40;95.40;;;;;;4972867;28;19936;-86
2022/01/11 00:03:44;;;;;;;;;;;4.30;95.40;;;;;;4989970;28;20228;-86
2022/01/11 00:06:28;;;;;;;;;;;4.40;95.40;;;;;;4975724;28;19914;-86
2022/01/11 00:09:00;;;;;;;;;;;4.30;95.40;;;;;;4985437;28;19913;-86
2022/01/11 00:11:28;;;;;;;;;;;4.30;95.30;;;;;;4968135;28;20015;-86
2022/01/11 00:13:54;;;;;;;;;;;4.30;95.40;;;;;;4992403;28;19913;-86
2022/01/11 00:16:21;;;;;;;;;;;4.30;95.30;;;;;;4974102;28;19996;-86
2022/01/11 00:18:48;;;;;;;;;;;4.30;95.30;;;;;;4980842;28;19919;-86
2022/01/11 00:21:15;;;;;;;;;;;4.20;95.30;;;;;;4990659;28;19940;-86
2022/01/11 00:26:09;;;;;;;;;;;4.20;95.30;;;;;;4983993;28;19941;-86
2022/01/11 00:28:35;;;;;;;;;;;4.20;95.40;;;;;;4997229;28;19914;-86
2022/01/11 00:31:05;;;;;;;;;;;4.20;95.40;;;;;;4986751;28;19920;-86
2022/01/11 00:33:38;;;;;;;;;;;4.20;95.40;;;;;;4981311;28;20107;-86
2022/01/11 00:36:06;;;;;;;;;;;4.20;95.30;;;;;;4990522;28;19928;-86
2022/01/11 00:38:38;;;;;;;;;;;4.10;95.30;;;;;;4987755;28;20385;-85
2022/01/11 00:41:06;;;;;;;;;;;4.20;95.20;;;;;;4981579;28;19914;-86
2022/01/11 00:43:34;;;;;;;;;;;4.10;95.20;;;;;;4988592;28;20046;-86
2022/01/11 00:46:01;;;;;;;;;;;4.10;95.20;;;;;;4992413;28;19924;-86
2022/01/11 00:48:28;;;;;;;;;;;4.10;95.20;;;;;;4991852;28;20104;-85
2022/01/11 00:50:56;;;;;;;;;;;4.10;95.20;;;;;;4983669;28;19920;-86
2022/01/11 00:53:23;;;;;;;;;;;4.20;95.30;;;;;;4981987;28;20550;-85
2022/01/11 00:55:50;;;;;;;;;;;4.20;95.30;;;;;;4973240;28;20164;-85
2022/01/11 00:58:17;;;;;;;;;;;4.10;95.20;;;;;;4990462;28;20395;-85
2022/01/11 01:00:44;;;;;;;;;;;4.20;95.20;;;;;;4989023;28;19951;-86
2022/01/11 01:03:11;;;;;;;;;;;4.10;95.20;;;;;;4985242;28;19929;-86
2022/01/11 01:05:38;;;;;;;;;;;4.10;95.10;;;;;;4987132;28;20281;-86
2022/01/11 01:08:06;;;;;;;;;;;4.10;95.10;;;;;;4979945;28;20371;-86
2022/01/11 01:10:37;;;;;;;;;;;4.10;95.00;;;;;;4998621;28;19920;-86
2022/01/11 01:13:06;;;;;;;;;;;4.10;95.00;;;;;;4979989;28;20169;-86
2022/01/11 01:15:36;;;;;;;;;;;4.00;95.00;;;;;;4993896;28;19920;-86
2022/01/11 01:18:04;;;;;;;;;;;4.00;95.00;;;;;;4980806;28;20028;-86
2022/01/11 01:20:31;;;;;;;;;;;4.00;94.90;;;;;;4989273;28;19917;-86
2022/01/11 01:22:58;;;;;;;;;;;4.00;95.00;;;;;;4995951;28;20049;-86
2022/01/11 01:25:25;;;;;;;;;;;4.00;94.90;;;;;;4996686;28;20404;-86
2022/01/11 01:27:53;;;;;;;;;;;4.00;94.90;;;;;;4983724;28;20007;-86
2022/01/11 01:30:21;;;;;;;;;;;4.00;94.90;;;;;;4982889;28;19917;-86
2022/01/11 01:32:51;;;;;;;;;;;3.90;94.90;;;;;;4981360;28;20263;-86
2022/01/11 01:35:19;;;;;;;;;;;4.00;94.90;;;;;;4996382;28;20416;-85
2022/01/11 01:37:46;;;;;;;;;;;3.90;94.90;;;;;;4980749;28;19917;-85
2022/01/11 01:40:16;;;;;;;;;;;3.90;94.80;;;;;;4984721;28;19913;-86
2022/01/11 01:42:44;;;;;;;;;;;3.90;94.80;;;;;;4989795;28;19924;-86
2022/01/11 01:45:11;;;;;;;;;;;3.90;94.80;;;;;;4975566;28;19918;-86
2022/01/11 01:47:38;;;;;;;;;;;3.90;94.80;;;;;;4997015;28;19927;-86
2022/01/11 01:50:06;;;;;;;;;;;3.90;94.80;;;;;;4983975;28;19920;-86
2022/01/11 01:52:33;;;;;;;;;;;3.80;94.80;;;;;;4978500;28;19914;-86
2022/01/11 01:55:00;;;;;;;;;;;3.80;94.80;;;;;;5012856;28;20500;-86
2022/01/11 01:57:27;;;;;;;;;;;3.80;94.70;;;;;;4984564;28;20262;-86
2022/01/11 01:59:54;;;;;;;;;;;3.80;94.70;;;;;;4980817;28;23934;-86
2022/01/11 02:02:21;;;;;;;;;;;3.80;94.70;;;;;;4994604;28;19924;-86
2022/01/11 02:04:49;;;;;;;;;;;3.80;94.60;;;;;;4983298;28;21092;-86
2022/01/11 02:07:16;;;;;;;;;;;3.70;94.60;;;;;;4982656;28;19913;-86
2022/01/11 02:09:43;;;;;;;;;;;3.70;94.60;;;;;;4989786;28;20379;-86
2022/01/11 02:12:10;;;;;;;;;;;3.70;94.60;;;;;;4969449;28;19918;-86
2022/01/11 02:14:37;;;;;;;;;;;3.70;94.60;;;;;;4990036;28;20294;-86
2022/01/11 02:17:04;;;;;;;;;;;3.70;94.90;;;;;;4974012;28;20394;-86
2022/01/11 02:19:31;;;;;;;;;;;3.60;94.50;;;;;;4981782;28;20408;-86
2022/01/11 02:21:57;;;;;;;;;;;3.70;94.60;;;;;;4978506;28;19931;-85
2022/01/11 02:24:24;;;;;;;;;;;3.60;94.50;;;;;;4994365;28;19921;-86
2022/01/11 02:26:51;;;;;;;;;;;3.60;94.50;;;;;;4991110;28;20054;-86
2022/01/11 02:29:18;;;;;;;;;;;3.60;94.50;;;;;;4992923;28;19913;-85
2022/01/11 02:31:45;;;;;;;;;;;3.60;94.50;;;;;;4970722;28;20137;-87
2022/01/11 02:34:12;;;;;;;;;;;3.60;94.50;;;;;;4994458;28;19917;-86
2022/01/11 02:36:39;;;;;;;;;;;3.60;94.60;;;;;;4984545;28;20297;-86
2022/01/11 02:39:06;;;;;;;;;;;3.60;94.60;;;;;;4977520;28;19924;-86
2022/01/11 02:41:33;;;;;;;;;;;3.60;94.60;;;;;;4990285;28;20412;-86
2022/01/11 02:44:00;;;;;;;;;;;3.60;94.60;;;;;;4994609;28;20103;-86
2022/01/11 02:46:28;;;;;;;;;;;3.50;94.60;;;;;;4995499;28;19935;-86
2022/01/11 02:48:55;;;;;;;;;;;3.50;94.60;;;;;;4976216;28;20022;-86
2022/01/11 02:51:24;;;;;;;;;;;3.60;94.70;;;;;;4990918;28;19913;-86
2022/01/11 02:53:52;;;;;;;;;;;3.50;94.60;;;;;;4984576;28;19928;-86
2022/01/11 02:56:20;;;;;;;;;;;3.50;94.70;;;;;;4989000;28;20413;-86
2022/01/11 02:58:47;;;;;;;;;;;3.50;94.70;;;;;;4968810;28;20528;-86
2022/01/11 03:01:14;;;;;;;;;;;3.50;94.70;;;;;;4992425;28;20384;-86
2022/01/11 03:03:41;;;;;;;;;;;3.50;94.70;;;;;;4982361;28;19924;-86
2022/01/11 03:06:08;;;;;;;;;;;3.50;94.70;;;;;;4992238;28;19923;-86
2022/01/11 03:08:39;;;;;;;;;;;3.50;94.70;;;;;;4986449;28;19921;-86
2022/01/11 03:11:07;;;;;;;;;;;3.50;94.70;;;;;;4982822;28;20294;-86
2022/01/11 03:13:35;;;;;;;;;;;3.40;94.70;;;;;;4990627;28;19944;-86
2022/01/11 03:16:02;;;;;;;;;;;3.40;94.70;;;;;;4989166;28;19917;-86
2022/01/11 03:18:29;;;;;;;;;;;3.40;94.70;;;;;;4974017;28;19918;-86
2022/01/11 03:20:56;;;;;;;;;;;3.40;94.80;;;;;;4989611;28;19913;-85
2022/01/11 03:23:23;;;;;;;;;;;3.40;94.70;;;;;;4985199;28;19924;-85
2022/01/11 03:25:53;;;;;;;;;;;3.40;94.80;;;;;;4978064;28;19925;-86
2022/01/11 03:28:20;;;;;;;;;;;3.40;94.80;;;;;;4987650;28;20268;-86
2022/01/11 03:30:48;;;;;;;;;;;3.40;94.80;;;;;;4976314;28;19913;-86
2022/01/11 03:33:14;;;;;;;;;;;3.30;94.80;;;;;;4989512;28;19918;-86
2022/01/11 03:35:41;;;;;;;;;;;3.30;94.80;;;;;;4956715;28;20401;-86
2022/01/11 03:38:10;;;;;;;;;;;3.30;94.80;;;;;;4982268;28;19920;-86
2022/01/11 03:40:37;;;;;;;;;;;3.30;94.80;;;;;;4979730;28;20244;-86
2022/01/11 03:43:04;;;;;;;;;;;3.30;94.80;;;;;;4984628;28;19921;-86
2022/01/11 03:45:31;;;;;;;;;;;3.30;94.70;;;;;;4989481;28;20302;-86
2022/01/11 03:47:59;;;;;;;;;;;3.20;94.70;;;;;;4983436;28;19914;-86
2022/01/11 03:50:26;;;;;;;;;;;3.20;94.70;;;;;;4983843;28;19920;-86
2022/01/11 03:53:06;;;;;;;;;;;3.20;94.70;;;;;;4983989;28;20595;-86
2022/01/11 03:58:26;;;;;;;;;;;3.20;94.70;;;;;;4988674;28;20298;-85
2022/01/11 04:00:53;;;;;;;;;;;3.20;94.60;;;;;;4989508;28;20120;-86
2022/01/11 04:03:20;;;;;;;;;;;3.20;94.60;;;;;;4990136;28;19913;-86
2022/01/11 04:05:47;;;;;;;;;;;3.10;94.60;;;;;;4978805;28;19924;-86
2022/01/11 04:08:14;;;;;;;;;;;3.10;94.60;;;;;;4995097;28;19923;-86
2022/01/11 04:10:41;;;;;;;;;;;3.10;94.60;;;;;;4978807;28;19928;-86
2022/01/11 04:13:08;;;;;;;;;;;3.10;94.60;;;;;;4983565;28;20266;-86
2022/01/11 04:15:35;;;;;;;;;;;3.10;94.50;;;;;;4981109;28;19928;-86
2022/01/11 04:18:02;;;;;;;;;;;3.00;94.50;;;;;;4989693;28;19918;-85
2022/01/11 04:20:29;;;;;;;;;;;3.00;94.50;;;;;;4972026;28;20271;-86
2022/01/11 04:22:56;;;;;;;;;;;3.00;94.50;;;;;;4984975;28;19928;-86
2022/01/11 04:25:22;;;;;;;;;;;2.90;94.50;;;;;;4980261;28;20379;-86
2022/01/11 04:27:49;;;;;;;;;;;2.90;94.50;;;;;;4970758;28;21057;-86
2022/01/11 04:30:16;;;;;;;;;;;2.90;94.50;;;;;;4987839;28;19917;-86
2022/01/11 04:32:43;;;;;;;;;;;2.90;94.50;;;;;;4980210;28;19917;-86
2022/01/11 04:35:12;;;;;;;;;;;2.90;94.50;;;;;;4985353;28;20400;-86
2022/01/11 04:37:39;;;;;;;;;;;2.80;94.40;;;;;;4994292;28;20278;-86
2022/01/11 04:40:06;;;;;;;;;;;2.80;94.40;;;;;;4975477;28;19914;-86
2022/01/11 04:42:33;;;;;;;;;;;2.80;94.40;;;;;;4989206;28;19922;-85
2022/01/11 04:45:00;;;;;;;;;;;2.80;94.50;;;;;;4991405;28;20468;-85
2022/01/11 04:47:27;;;;;;;;;;;2.80;94.40;;;;;;4994612;28;19920;-85
2022/01/11 04:49:54;;;;;;;;;;;2.80;94.40;;;;;;4971507;28;19928;-86
2022/01/11 04:52:21;;;;;;;;;;;2.80;94.50;;;;;;4991365;28;19918;-86
2022/01/11 04:54:47;;;;;;;;;;;2.80;94.50;;;;;;4993326;28;19914;-86
2022/01/11 04:57:14;;;;;;;;;;;2.80;94.50;;;;;;4976889;28;19935;-86
2022/01/11 04:59:41;;;;;;;;;;;2.80;94.50;;;;;;4977326;28;19922;-86
2022/01/11 05:02:08;;;;;;;;;;;2.80;94.50;;;;;;4999387;28;20202;-86
2022/01/11 05:04:35;;;;;;;;;;;2.80;94.50;;;;;;4992144;28;19914;-86
2022/01/11 05:07:02;;;;;;;;;;;2.80;94.50;;;;;;4977456;28;20510;-86
2022/01/11 05:09:28;;;;;;;;;;;2.80;94.60;;;;;;4992503;28;19920;-86
2022/01/11 05:11:55;;;;;;;;;;;2.80;94.60;;;;;;5006154;28;19921;-86
2022/01/11 05:14:22;;;;;;;;;;;2.90;94.70;;;;;;4988910;28;19924;-86
2022/01/11 05:16:49;;;;;;;;;;;2.90;94.70;;;;;;4969053;28;19920;-86
2022/01/11 05:19:16;;;;;;;;;;;2.80;94.70;;;;;;4995031;28;19923;-86
2022/01/11 05:21:43;;;;;;;;;;;2.80;94.70;;;;;;4979980;28;19913;-86
2022/01/11 05:24:10;;;;;;;;;;;2.90;94.70;;;;;;4999934;28;19920;-86
2022/01/11 05:26:37;;;;;;;;;;;2.80;94.70;;;;;;4981606;28;20420;-86
2022/01/11 05:29:04;;;;;;;;;;;2.90;94.70;;;;;;4990782;28;19913;-85
2022/01/11 05:31:35;;;;;;;;;;;2.90;94.70;;;;;;4971070;28;19924;-85
2022/01/11 05:34:02;;;;;;;;;;;2.90;94.80;;;;;;4987170;28;20300;-85
2022/01/11 05:36:29;;;;;;;;;;;3.00;94.80;;;;;;4987695;28;20569;-86
2022/01/11 05:38:56;;;;;;;;;;;3.00;94.80;;;;;;4987498;28;19944;-86
2022/01/11 05:41:23;;;;;;;;;;;3.00;94.80;;;;;;5003239;28;19917;-86
2022/01/11 05:43:50;;;;;;;;;;;3.00;94.80;;;;;;4985140;28;19943;-86
2022/01/11 05:46:17;;;;;;;;;;;3.00;94.80;;;;;;4986864;28;19917;-85
2022/01/11 05:48:45;;;;;;;;;;;3.00;94.80;;;;;;4978933;28;20435;-85
2022/01/11 05:51:14;;;;;;;;;;;3.00;94.80;;;;;;4990171;28;19914;-85
2022/01/11 05:53:41;;;;;;;;;;;3.00;94.80;;;;;;4979377;28;19922;-86
2022/01/11 05:56:08;;;;;;;;;;;3.00;94.80;;;;;;4989401;28;20270;-85
2022/01/11 05:58:35;;;;;;;;;;;3.10;94.80;;;;;;4997884;28;20414;-86
2022/01/11 06:01:02;;;;;;;;;;;3.10;94.80;;;;;;4974583;28;22304;-86
2022/01/11 06:03:29;;;;;;;;;;;3.10;94.80;;;;;;4978029;28;19944;-86
2022/01/11 06:05:56;;;;;;;;;;;3.10;95.10;;;;;;4992136;28;19924;-86
2022/01/11 06:08:23;;;;;;;;;;;3.10;94.80;;;;;;4965952;28;19921;-86
2022/01/11 06:10:50;;;;;;;;;;;3.10;94.80;;;;;;4986414;28;19948;-86
2022/01/11 06:13:16;;;;;;;;;;;3.20;94.90;;;;;;4993288;28;19913;-86
2022/01/11 06:15:43;;;;;;;;;;;3.10;94.80;;;;;;4967975;28;19928;-86
2022/01/11 06:18:10;;;;;;;;;;;3.10;94.80;;;;;;4983968;28;20375;-86
2022/01/11 06:20:37;;;;;;;;;;;3.10;94.80;;;;;;4993841;28;20014;-86
2022/01/11 06:23:04;;;;;;;;;;;3.10;94.80;;;;;;4987348;28;19913;-86
2022/01/11 06:25:30;;;;;;;;;;;3.10;94.80;;;;;;4995870;28;19920;-86
2022/01/11 06:27:57;;;;;;;;;;;3.20;94.80;;;;;;4998798;28;19913;-86
2022/01/11 06:30:24;;;;;;;;;;;3.10;94.80;;;;;;4982329;28;19913;-86
2022/01/11 06:32:51;;;;;;;;;;;3.10;94.80;;;;;;4988054;28;19927;-86
2022/01/11 06:35:18;;;;;;;;;;;3.10;94.80;;;;;;4993181;28;19921;-86
2022/01/11 06:37:46;;;;;;;;;;;3.20;94.90;;;;;;4986873;28;19917;-86
2022/01/11 06:40:14;;;;;;;;;;;3.10;94.80;;;;;;4980727;28;20401;-86
2022/01/11 06:42:41;;;;;;;;;;;3.10;94.80;;;;;;4994628;28;19928;-86
2022/01/11 06:45:08;;;;;;;;;;;3.20;94.80;;;;;;4995470;28;19913;-86
2022/01/11 06:47:35;;;;;;;;;;;3.20;94.80;;;;;;4974379;28;20571;-86
2022/01/11 06:50:02;;;;;;;;;;;3.20;94.80;;;;;;4986919;28;19914;-86
2022/01/11 06:52:29;;;;;;;;;;;3.20;94.80;;;;;;4990280;28;20137;-86
2022/01/11 06:54:56;;;;;;;;;;;3.20;94.80;;;;;;4980569;28;19939;-86
2022/01/11 06:57:24;;;;;;;;;;;3.20;94.80;;;;;;4989464;28;19928;-86
2022/01/11 06:59:51;;;;;;;;;;;3.20;94.80;;;;;;4988028;28;19924;-86
2022/01/11 07:02:17;;;;;;;;;;;3.20;94.80;;;;;;4982039;28;19917;-86
2022/01/11 07:04:44;;;;;;;;;;;3.20;94.90;;;;;;4987673;28;20289;-86
2022/01/11 07:07:11;;;;;;;;;;;3.20;94.80;;;;;;4984177;28;19922;-86
2022/01/11 07:09:38;;;;;;;;;;;3.20;94.80;;;;;;4975196;28;20320;-86
2022/01/11 07:12:05;;;;;;;;;;;3.20;94.80;;;;;;4997283;28;19916;-86
2022/01/11 07:14:32;;;;;;;;;;;3.20;94.90;;;;;;4995366;28;20113;-86
2022/01/11 07:16:59;;;;;;;;;;;3.20;94.90;;;;;;4989818;28;19919;-86
2022/01/11 07:19:29;;;;;;;;;;;3.20;94.90;;;;;;4974003;28;20339;-86
2022/01/11 07:21:58;;;;;;;;;;;3.20;94.90;;;;;;4989540;28;19920;-86
2022/01/11 07:24:26;;;;;;;;;;;3.30;94.90;;;;;;4993385;28;20398;-86
2022/01/11 07:26:53;;;;;;;;;;;3.30;94.90;;;;;;4986117;28;20394;-86
2022/01/11 07:29:20;;;;;;;;;;;3.30;94.90;;;;;;4995855;28;20012;-86
2022/01/11 07:31:47;;;;;;;;;;;3.30;94.90;;;;;;4997599;28;19914;-86
2022/01/11 07:34:14;;;;;;;;;;;3.30;95.00;;;;;;4979883;28;19914;-86
2022/01/11 07:36:42;;;;;;;;;;;3.40;95.10;;;;;;4988733;28;20307;-86
2022/01/11 07:39:09;;;;;;;;;;;3.30;95.00;;;;;;4996232;28;19913;-86
2022/01/11 07:41:36;;;;;;;;;;;3.40;95.10;;;;;;4981631;28;19921;-86
2022/01/11 07:44:03;;;;;;;;;;;3.40;95.10;;;;;;4997956;28;19917;-86
2022/01/11 07:46:30;;;;;;;;;;;3.40;95.10;;;;;;4989325;28;19921;-86
2022/01/11 07:48:59;;;;;;;;;;;3.50;95.20;;;;;;4986608;28;19913;-86
2022/01/11 07:51:26;;;;;;;;;;;3.50;95.20;;;;;;4982487;28;19955;-86
2022/01/11 07:53:53;;;;;;;;;;;3.50;95.20;;;;;;4991682;28;20356;-86
2022/01/11 07:56:20;;;;;;;;;;;3.50;95.20;;;;;;4969300;28;19920;-86
2022/01/11 07:58:47;;;;;;;;;;;3.60;95.20;;;;;;4984842;28;20396;-86
2022/01/11 08:01:15;;;;;;;;;;;3.60;95.30;;;;;;4985825;28;19918;-86
2022/01/11 08:03:41;;;;;;;;;;;3.60;95.20;;;;;;4985551;28;19913;-86
2022/01/11 08:06:08;;;;;;;;;;;3.60;95.30;;;;;;4993431;28;19917;-86
2022/01/11 08:08:35;;;;;;;;;;;3.60;95.20;;;;;;4992554;28;19917;-86
2022/01/11 08:11:02;;;;;;;;;;;3.70;95.30;;;;;;4974816;28;19918;-86
2022/01/11 08:13:29;;;;;;;;;;;3.70;95.30;;;;;;4975454;28;20106;-86
2022/01/11 08:15:56;;;;;;;;;;;3.70;95.30;;;;;;4986897;28;19913;-86
2022/01/11 08:18:23;;;;;;;;;;;3.80;95.30;;;;;;4972355;28;20003;-86
2022/01/11 08:20:50;;;;;;;;;;;3.80;95.40;;;;;;4985785;28;20279;-86
2022/01/11 08:23:16;;;;;;;;;;;3.80;95.40;;;;;;4977825;28;20565;-86
2022/01/11 08:25:43;;;;;;;;;;;3.90;95.50;;;;;;4991307;28;19920;-86
2022/01/11 08:28:10;;;;;;;;;;;4.00;95.50;;;;;;4973435;28;20375;-85
2022/01/11 08:30:37;;;;;;;;;;;4.00;95.50;;;;;;4993668;28;19920;-85
2022/01/11 08:33:04;;;;;;;;;;;4.00;95.50;;;;;;4984134;28;20001;-85
2022/01/11 08:35:31;;;;;;;;;;;4.10;95.60;;;;;;4982640;28;20157;-85
2022/01/11 08:37:58;;;;;;;;;;;4.20;95.70;;;;;;4985540;28;19920;-85
2022/01/11 08:40:26;;;;;;;;;;;4.20;95.80;;;;;;4987319;28;19943;-85
2022/01/11 08:42:53;;;;;;;;;;;4.30;95.90;;;;;;4986532;28;19913;-85
2022/01/11 08:45:20;;;;;;;;;;;4.40;95.90;;;;;;4973316;28;20101;-85
2022/01/11 08:47:47;;;;;;;;;;;4.50;96.00;;;;;;4999912;28;19944;-85
2022/01/11 08:50:13;;;;;;;;;;;4.60;96.10;;;;;;4972696;28;20391;-85
2022/01/11 08:52:41;;;;;;;;;;;4.70;96.40;;;;;;4988968;28;20278;-85
2022/01/11 08:55:09;;;;;;;;;;;4.70;96.10;;;;;;4976957;28;20260;-85
2022/01/11 08:57:36;;;;;;;;;;;4.80;96.10;;;;;;4999809;28;19924;-85
2022/01/11 09:00:06;;;;;;;;;;;4.90;96.10;;;;;;4978718;28;20388;-85
2022/01/11 09:02:35;;;;;;;;;;;4.90;96.20;;;;;;4987255;28;20444;-85
2022/01/11 09:05:02;;;;;;;;;;;5.10;96.10;;;;;;4988308;28;19917;-85
2022/01/11 09:07:29;;;;;;;;;;;5.10;96.20;;;;;;4985232;28;19952;-85
2022/01/11 09:09:56;;;;;;;;;;;5.20;96.20;;;;;;4982229;28;20393;-85
2022/01/11 09:12:22;;;;;;;;;;;5.30;96.30;;;;;;4988465;28;19939;-85
2022/01/11 09:14:49;;;;;;;;;;;5.40;96.30;;;;;;4993651;28;20449;-85
2022/01/11 09:17:16;;;;;;;;;;;5.50;96.30;;;;;;4961824;28;20232;-85
2022/01/11 09:19:43;;;;;;;;;;;5.50;96.20;;;;;;4987687;28;19924;-85
2022/01/11 09:22:10;;;;;;;;;;;5.60;96.20;;;;;;4983439;28;19925;-85
2022/01/11 09:24:37;;;;;;;;;;;5.70;96.40;;;;;;4983860;28;20374;-85
2022/01/11 09:27:04;;;;;;;;;;;5.80;96.40;;;;;;4984966;28;20293;-85
2022/01/11 09:29:32;;;;;;;;;;;5.80;96.50;;;;;;4993272;28;20630;-85
2022/01/11 09:32:00;;;;;;;;;;;6.00;96.60;;;;;;4979697;28;19914;-85
2022/01/11 09:34:27;;;;;;;;;;;6.10;96.80;;;;;;4992578;28;20103;-85
2022/01/11 09:36:54;;;;;;;;;;;6.30;96.90;;;;;;4989924;28;19918;-85
2022/01/11 09:39:20;;;;;;;;;;;6.60;97.10;;;;;;4976317;28;20391;-85
2022/01/11 09:41:47;;;;;;;;;;;6.90;97.30;;;;;;4984394;28;20357;-85
2022/01/11 09:44:14;;;;;;;;;;;7.10;97.40;;;;;;4983542;28;20490;-85
2022/01/11 09:46:41;;;;;;;;;;;7.30;97.40;;;;;;4980875;28;19914;-85
2022/01/11 09:49:08;;;;;;;;;;;7.50;97.30;;;;;;4985572;28;19917;-85
2022/01/11 09:51:36;;;;;;;;;;;7.60;97.00;;;;;;4995481;28;19928;-85
2022/01/11 09:54:03;;;;;;;;;;;7.70;96.90;;;;;;4979695;28;20286;-85
2022/01/11 09:56:33;;;;;;;;;;;7.80;97.00;;;;;;4985853;28;22554;-85
2022/01/11 09:59:00;;;;;;;;;;;8.10;97.40;;;;;;4990154;28;19914;-85
2022/01/11 10:01:27;;;;;;;;;;;8.40;97.70;;;;;;4972639;28;20286;-85
2022/01/11 10:04:04;;;;;;;;;;;8.80;97.80;;;;;;4981271;28;20008;-86
2022/01/11 10:06:37;;;;;;;;;;;9.20;98.10;;;;;;4987412;28;19921;-85
2022/01/11 10:09:11;;;;;;;;;;;9.80;98.40;;;;;;4980482;28;19928;-85
2022/01/11 10:11:43;;;;;;;;;;;10.40;98.30;;;;;;4969119;28;20414;-85
2022/01/11 10:14:22;;;;;;;;;;;10.90;98.40;;;;;;4988711;28;20298;-85
2022/01/11 10:16:50;;;;;;;;;;;11.40;98.30;;;;;;5012826;28;19924;-86
2022/01/11 10:19:20;;;;;;;;;;;11.90;98.20;;;;;;4975230;28;19918;-85
2022/01/11 10:21:49;;;;;;;;;;;12.30;98.20;;;;;;4988508;28;19928;-85
2022/01/11 10:24:23;;;;;;;;;;;12.80;97.90;;;;;;4977850;28;20445;-86
2022/01/11 10:26:53;;;;;;;;;;;13.10;96.70;;;;;;4987694;28;19921;-85
2022/01/11 10:29:31;;;;;;;;;;;13.50;96.80;;;;;;4986829;28;20102;-85
2022/01/11 10:31:59;;;;;;;;;;;13.80;96.30;;;;;;4984665;28;19924;-86
2022/01/11 10:34:34;;;;;;;;;;;14.10;96.80;;;;;;4981730;28;20131;-85
2022/01/11 10:37:02;;;;;;;;;;;14.40;97.10;;;;;;4990839;28;19918;-85
2022/01/11 10:39:34;;;;;;;;;;;14.60;96.90;;;;;;5001697;28;19921;-85
2022/01/11 10:42:02;;;;;;;;;;;14.80;95.90;;;;;;4987400;28;19917;-85
2022/01/11 10:44:46;;;;;;;;;;;15.00;93.50;;;;;;4988950;28;20318;-85
2022/01/11 10:47:24;;;;;;;;;;;15.10;95.80;;;;;;4990148;28;19935;-85
2022/01/11 10:50:12;;;;;;;;;;;15.20;95.30;;;;;;4993497;28;19928;-85
2022/01/11 10:52:39;;;;;;;;;;;15.30;95.10;;;;;;4992249;28;20264;-85
2022/01/11 10:55:07;;;;;;;;;;;15.50;95.20;;;;;;4973045;28;19920;-85
2022/01/11 10:57:37;;;;;;;;;;;15.60;95.80;;;;;;4981282;28;19914;-85
2022/01/11 11:00:18;;;;;;;;;;;15.60;95.40;;;;;;4987217;28;20018;-85
2022/01/11 11:02:49;;;;;;;;;;;15.50;94.10;;;;;;4992536;28;19921;-85
2022/01/11 11:05:28;;;;;;;;;;;15.30;92.60;;;;;;4975722;28;20194;-85
2022/01/11 11:08:15;;;;;;;;;;;15.00;92.00;;;;;;4994781;28;20510;-85
2022/01/11 11:10:44;;;;;;;;;;;14.70;93.30;;;;;;4987282;28;19920;-84
2022/01/11 11:13:16;;;;;;;;;;;14.20;93.00;;;;;;4977219;28;19921;-85
2022/01/11 11:15:43;;;;;;;;;;;13.80;93.10;;;;;;4998504;28;19924;-85
2022/01/11 11:18:28;;;;;;;;;;;13.50;92.80;;;;;;4955158;28;20231;-85
2022/01/11 11:20:55;;;;;;;;;;;13.20;92.40;;;;;;4997476;28;19921;-85
2022/01/11 11:23:22;;;;;;;;;;;12.80;92.80;;;;;;4985654;28;20020;-85
2022/01/11 11:25:49;;;;;;;;;;;12.50;92.70;;;;;;5000185;28;19924;-85
2022/01/11 11:28:16;;;;;;;;;;;12.30;92.90;;;;;;4979112;28;20892;-85
2022/01/11 11:30:47;;;;;;;;;;;12.10;92.70;;;;;;4992275;28;19914;-85
2022/01/11 11:33:15;;;;;;;;;;;11.80;93.20;;;;;;4973711;28;19917;-85
2022/01/11 11:35:42;;;;;;;;;;;11.60;93.10;;;;;;4994336;28;20313;-85
2022/01/11 11:38:09;;;;;;;;;;;11.50;93.50;;;;;;4981773;28;20372;-85
2022/01/11 11:40:36;;;;;;;;;;;11.30;93.60;;;;;;5000336;28;20289;-84
2022/01/11 11:43:03;;;;;;;;;;;11.20;93.70;;;;;;4986453;28;19913;-85
2022/01/11 11:45:32;;;;;;;;;;;11.10;94.10;;;;;;4990101;28;19935;-85
2022/01/11 11:48:09;;;;;;;;;;;11.00;94.00;;;;;;4989387;28;19920;-85
2022/01/11 11:50:51;;;;;;;;;;;10.90;94.00;;;;;;4981965;28;19924;-85
2022/01/11 11:53:24;;;;;;;;;;;10.90;93.90;;;;;;4984606;28;21805;-84
2022/01/11 11:55:51;;;;;;;;;;;10.80;94.00;;;;;;4975341;28;19920;-85
2022/01/11 11:58:21;;;;;;;;;;;10.70;94.20;;;;;;4978081;28;19929;-84
2022/01/11 12:00:51;;;;;;;;;;;10.60;94.20;;;;;;4972769;28;20220;-84
2022/01/11 12:03:25;;;;;;;;;;;10.60;94.10;;;;;;4985963;28;20421;-85
2022/01/11 12:05:53;;;;;;;;;;;10.50;93.80;;;;;;4974905;28;19914;-85
2022/01/11 12:08:26;;;;;;;;;;;10.50;94.00;;;;;;4987152;28;19936;-85
2022/01/11 12:10:54;;;;;;;;;;;10.40;93.90;;;;;;4995255;28;19925;-85
2022/01/11 12:13:39;;;;;;;;;;;10.40;94.00;;;;;;4980821;28;19914;-84
2022/01/11 12:16:25;;;;;;;;;;;10.40;93.90;;;;;;4982049;28;19918;-85
2022/01/11 12:18:59;;;;;;;;;;;10.40;93.30;;;;;;4995081;28;19917;-85
2022/01/11 12:21:27;;;;;;;;;;;10.30;93.80;;;;;;4976254;28;20705;-85
2022/01/11 12:23:55;;;;;;;;;;;10.30;94.10;;;;;;4994082;28;20367;-85
2022/01/11 12:26:25;;;;;;;;;;;10.30;94.30;;;;;;4969146;28;20535;-85
2022/01/11 12:29:08;;;;;;;;;;;10.20;94.40;;;;;;4990011;28;19932;-85
2022/01/11 12:31:36;;;;;;;;;;;10.20;94.50;;;;;;4980560;28;20291;-85
2022/01/11 12:34:03;;;;;;;;;;;10.20;94.60;;;;;;5010904;28;19913;-85
2022/01/11 12:36:49;;;;;;;;;;;10.20;94.50;;;;;;5010152;28;20533;-85
2022/01/11 12:39:16;;;;;;;;;;;10.30;94.60;;;;;;4967619;28;20669;-84
2022/01/11 12:41:43;;;;;;;;;;;10.30;94.60;;;;;;4990390;28;19914;-85
2022/01/11 12:44:32;;;;;;;;;;;10.40;94.60;;;;;;4991007;28;19922;-85
2022/01/11 12:47:05;;;;;;;;;;;10.40;95.00;;;;;;4982665;28;20182;-85
2022/01/11 12:49:33;;;;;;;;;;;10.40;95.10;;;;;;4976283;28;19921;-84
2022/01/11 12:52:10;;;;;;;;;;;10.40;95.00;;;;;;4983652;28;20485;-85
2022/01/11 12:54:38;;;;;;;;;;;10.30;94.70;;;;;;4988780;28;19929;-85
2022/01/11 12:57:09;;;;;;;;;;;10.40;94.40;;;;;;4988805;28;19914;-84
2022/01/11 12:59:37;;;;;;;;;;;10.30;94.30;;;;;;4990871;28;19914;-85
2022/01/11 13:02:12;;;;;;;;;;;10.40;94.50;;;;;;4982404;28;19918;-85
2022/01/11 13:04:43;;;;;;;;;;;10.40;94.40;;;;;;4989358;28;19920;-85
2022/01/11 13:07:11;;;;;;;;;;;10.50;94.20;;;;;;4986416;28;20352;-85
2022/01/11 13:09:39;;;;;;;;;;;10.50;94.20;;;;;;4981475;28;19924;-85
2022/01/11 13:12:06;;;;;;;;;;;10.60;94.50;;;;;;4984492;28;20206;-85
2022/01/11 13:14:40;;;;;;;;;;;10.70;94.40;;;;;;4994529;28;19921;-84
2022/01/11 13:17:07;;;;;;;;;;;10.80;94.50;;;;;;4985185;28;19920;-85
2022/01/11 13:19:40;;;;;;;;;;;11.00;94.70;;;;;;4986065;28;19922;-85
2022/01/11 13:22:11;;;;;;;;;;;11.10;94.70;;;;;;4992434;28;19919;-85
2022/01/11 13:24:48;;;;;;;;;;;11.40;94.90;;;;;;4964766;28;20393;-84
2022/01/11 13:27:16;;;;;;;;;;;11.60;94.50;;;;;;4995623;28;20233;-85
2022/01/11 13:29:43;;;;;;;;;;;12.00;96.00;;;;;;4999941;28;19921;-85
2022/01/11 13:32:10;;;;;;;;;;;12.30;96.60;;;;;;4980082;28;19914;-85
2022/01/11 13:34:38;;;;;;;;;;;12.70;96.50;;;;;;4968298;28;19913;-84
2022/01/11 13:37:05;;;;;;;;;;;13.10;96.80;;;;;;4995724;28;20337;-85
2022/01/11 13:39:37;;;;;;;;;;;13.40;97.10;;;;;;4981387;28;19922;-84
2022/01/11 13:42:13;;;;;;;;;;;13.70;97.00;;;;;;4990898;28;19920;-85
2022/01/11 13:44:43;;;;;;;;;;;14.00;96.90;;;;;;4999719;28;19913;-85
2022/01/11 13:47:11;;;;;;;;;;;14.20;96.80;;;;;;4989419;28;19920;-84
2022/01/11 13:49:42;;;;;;;;;;;14.40;96.30;;;;;;4998391;28;19918;-84
2022/01/11 13:52:12;;;;;;;;;;;14.60;96.00;;;;;;4986320;28;19920;-84
2022/01/11 13:54:40;;;;;;;;;;;14.80;95.90;;;;;;4992665;28;20290;-84
2022/01/11 13:57:18;;;;;;;;;;;14.90;96.00;;;;;;4979721;28;19920;-85
2022/01/11 13:59:45;;;;;;;;;;;15.00;95.70;;;;;;4975247;28;20087;-85
2022/01/11 14:02:16;;;;;;;;;;;15.10;95.50;;;;;;4995662;28;20462;-85
2022/01/11 14:04:45;;;;;;;;;;;15.20;95.30;;;;;;4972927;28;20395;-84
2022/01/11 14:07:13;;;;;;;;;;;15.30;95.10;;;;;;4989504;28;19929;-85
2022/01/11 14:09:48;;;;;;;;;;;15.40;94.20;;;;;;4992917;28;19917;-85
2022/01/11 14:12:22;;;;;;;;;;;15.40;93.80;;;;;;4980159;28;19924;-84
2022/01/11 14:15:03;;;;;;;;;;;15.50;93.20;;;;;;5004841;28;20397;-84
2022/01/11 14:17:32;;;;;;;;;;;15.50;93.50;;;;;;4993024;28;20402;-84
2022/01/11 14:20:00;;;;;;;;;;;15.40;93.30;;;;;;4987039;28;19914;-84
2022/01/11 14:22:40;;;;;;;;;;;15.20;93.10;;;;;;4982809;28;19914;-84
2022/01/11 14:25:09;;;;;;;;;;;15.00;92.00;;;;;;4985933;28;19914;-84
2022/01/11 14:27:36;;;;;;;;;;;14.70;91.90;;;;;;4976270;28;19922;-84
2022/01/11 14:30:11;;;;;;;;;;;14.40;91.60;;;;;;5004785;28;19917;-84
2022/01/11 14:32:54;;;;;;;;;;;14.10;91.00;;;;;;4994117;28;19913;-84
2022/01/11 14:35:23;;;;;;;;;;;13.80;90.90;;;;;;4982431;28;19921;-84
2022/01/11 14:37:59;;;;;;;;;;;13.50;90.80;;;;;;4984490;28;19948;-84
2022/01/11 14:40:28;;;;;;;;;;;13.20;91.30;;;;;;4992026;28;19918;-84